createdAt,value
2019-01-10T18:27:00.072Z,20.55
2019-01-10T18:29:32.915Z,20.85
2019-01-10T18:32:00.115Z,21.68
2019-01-10T18:34:29.452Z,25.72
2019-01-10T18:36:58.611Z,25.72
2019-01-10T18:39:27.848Z,19.80
2019-01-10T18:41:57.004Z,20.57
2019-01-10T18:44:26.086Z,18.73
2019-01-10T18:46:55.251Z,20.37
2019-01-10T18:49:24.417Z,19.48
2019-01-10T18:51:53.553Z,18.67
2019-01-10T18:54:22.671Z,20.55
2019-01-10T18:56:51.806Z,18.65
2019-01-10T18:59:20.999Z,22.62
2019-01-10T19:01:50.175Z,22.22
2019-01-10T19:04:19.398Z,23.80
2019-01-10T19:06:48.552Z,19.98
2019-01-10T19:09:17.665Z,20.48
2019-01-10T19:11:46.816Z,20.27
2019-01-10T19:14:16.019Z,22.13
2019-01-10T19:16:45.210Z,20.32
2019-01-10T19:19:14.462Z,24.15
2019-01-10T19:21:43.592Z,22.32
2019-01-10T19:24:12.760Z,19.73
2019-01-10T19:26:41.941Z,25.37
2019-01-10T19:29:11.044Z,23.70
2019-01-10T19:31:40.191Z,30.30
2019-01-10T19:34:09.315Z,26.62
2019-01-10T19:36:38.447Z,27.93
2019-01-10T19:39:08.855Z,20.62
2019-01-10T19:41:37.994Z,26.62
2019-01-10T19:44:07.206Z,20.27
2019-01-10T19:46:36.383Z,20.37
2019-01-10T19:49:05.491Z,22.75
2019-01-10T19:51:34.606Z,23.25
2019-01-10T19:54:03.711Z,23.42
2019-01-10T19:56:32.865Z,15.90
2019-01-10T19:59:02.020Z,14.80
2019-01-10T20:01:31.642Z,16.77
2019-01-10T20:04:00.826Z,15.93
2019-01-10T20:06:30.010Z,12.37
2019-01-10T20:08:59.160Z,16.95
2019-01-10T20:11:28.389Z,16.30
2019-01-10T20:13:57.503Z,15.88
2019-01-10T20:16:26.650Z,17.82
2019-01-10T20:18:55.940Z,11.35
2019-01-10T20:21:25.168Z,10.48
2019-01-10T20:23:54.408Z,8.85
2019-01-10T20:26:23.517Z,11.05
2019-01-10T20:28:52.645Z,8.90
2019-01-10T20:31:21.743Z,10.18
2019-01-10T20:33:50.954Z,8.08
2019-01-10T20:36:20.098Z,8.60
2019-01-10T20:38:49.327Z,6.45
2019-01-10T20:41:18.468Z,7.03
2019-01-10T20:43:47.621Z,6.92
2019-01-10T20:46:16.716Z,6.42
2019-01-10T20:48:45.832Z,7.78
2019-01-10T20:51:14.955Z,5.58
2019-01-10T20:53:44.144Z,8.00
2019-01-10T20:56:13.384Z,7.83
2019-01-10T20:58:42.514Z,5.95
2019-01-10T21:01:11.738Z,8.00
2019-01-10T21:03:40.861Z,8.25
2019-01-10T21:06:11.546Z,5.62
2019-01-10T21:08:40.832Z,9.55
2019-01-10T21:11:10.069Z,8.73
2019-01-10T21:13:39.219Z,7.92
2019-01-10T21:16:08.428Z,7.53
2019-01-10T21:18:37.553Z,9.13
2019-01-10T21:21:06.891Z,8.25
2019-01-10T21:23:35.984Z,9.33
2019-01-10T21:26:05.135Z,9.93
2019-01-10T21:28:34.405Z,8.68
2019-01-10T21:31:03.560Z,10.80
2019-01-10T21:33:32.722Z,10.40
2019-01-10T21:36:01.809Z,9.63
2019-01-10T21:38:30.956Z,6.47
2019-01-10T21:41:00.104Z,8.98
2019-01-10T21:43:29.225Z,7.50
2019-01-10T21:46:02.125Z,10.13
2019-01-10T21:48:35.032Z,6.97
2019-01-10T21:51:03.040Z,7.22
2019-01-10T21:53:35.484Z,7.78
2019-01-10T21:56:04.226Z,8.08
2019-01-10T21:58:33.423Z,6.72
2019-01-10T22:01:03.444Z,7.87
2019-01-10T22:03:32.651Z,4.95
2019-01-10T22:06:01.824Z,5.60
2019-01-10T22:08:31.055Z,8.90
2019-01-10T22:11:02.180Z,5.83
2019-01-10T22:13:31.103Z,4.47
2019-01-10T22:16:00.278Z,5.80
2019-01-10T22:18:29.413Z,6.10
2019-01-10T22:20:58.555Z,6.78
2019-01-10T22:23:27.639Z,5.85
2019-01-10T22:25:56.784Z,4.20
2019-01-10T22:28:25.955Z,5.87
2019-01-10T22:30:55.044Z,4.85
2019-01-10T22:33:24.159Z,6.33
2019-01-10T22:35:53.261Z,5.03
2019-01-10T22:38:22.342Z,6.25
2019-01-10T22:40:51.499Z,9.15
2019-01-10T22:43:20.617Z,5.40
2019-01-10T22:45:49.791Z,6.75
2019-01-10T22:48:18.856Z,6.33
2019-01-10T22:50:47.923Z,5.62
2019-01-10T22:53:17.004Z,6.78
2019-01-10T22:55:46.093Z,5.35
2019-01-10T22:58:15.384Z,6.25
2019-01-10T23:01:22.141Z,5.37
2019-01-10T23:03:51.463Z,4.65
2019-01-10T23:06:20.603Z,4.00
2019-01-10T23:08:49.906Z,5.12
2019-01-10T23:11:20.864Z,7.03
2019-01-10T23:14:00.273Z,4.62
2019-01-10T23:16:29.883Z,4.80
2019-01-10T23:18:59.008Z,6.28
2019-01-10T23:21:28.775Z,6.65
2019-01-10T23:24:15.141Z,4.92
2019-01-10T23:26:51.514Z,7.00
2019-01-10T23:29:20.613Z,6.75
2019-01-10T23:31:49.958Z,6.12
2019-01-10T23:34:19.159Z,5.75
2019-01-10T23:36:57.542Z,7.87
2019-01-10T23:39:26.601Z,6.40
2019-01-10T23:41:57.236Z,9.60
2019-01-10T23:44:26.409Z,8.25
2019-01-10T23:46:55.532Z,7.53
2019-01-10T23:49:24.535Z,7.62
2019-01-10T23:51:53.636Z,8.73
2019-01-10T23:54:22.694Z,8.13
2019-01-10T23:56:51.766Z,9.03
2019-01-10T23:59:20.863Z,9.33
